Huvudsida
METAR-TAF:

METAR-TAF

Flygplatser :

Lahore, Pakistan

latitud: 31-31N, longitud: 074-24E, höjd: 216 m

Aktuellt väderrapport

Denna rapport gjordes för 46 minuter sedan, klockan 08:25 UTC
Vind 5 kt från väst/nordväst
Temperatur 43°C
Fuktighet 20%
Tryck 1002 hPa
Sikt: 8000 m
Spridda moln på en höjd av 20000 ft

METAR: OPLA 200825Z 30005KT 8000 SCT200 43/15 Q1002 NOSIG RMK QFE976 A29.59

Tid: 14:11 (09:11 UTC)

Väderprognos

Denna rapport gjordes för 4 timmar och 11 minuter sedan, klockan 05:00 UTC
Prognos gäller från 20 kl. 06 UTC till 21 kl. 12 UTC
Vind 6 kt från sydväst
Sikt: 4000 m
torrdis
Temporärt
från 20 kl. 10 UTC till 20 kl. 14 UTC
Vind 15 kt från väst
Temporärt
från 21 kl. 00 UTC till 21 kl. 04 UTC
Sikt: 2500 m
torrdis,

TAF: OPLA 200500Z 2006/2112 23006KT 4000 HZ NSC TX45/2010Z TN29/2100Z TEMPO 2010/2014 27015KT TEMPO 2100/2104 2500 HZ

Aktuella väderrapporter och prognoser från 4000 flygplatser (METAR- och TAF-rapporter).

De tillgängliga stationerna syns som gula och röda prickar på kartan.

För musen över prickarna för att se namnen på stationerna.

Klicka sedan för att få väderrapporter och prognoser.

För att ändra kartan: Klicka på de gröna knapparna med ett svart kors på för att zooma in; den gröna knappen med ett streck på för att zooma ut; eller på de gröna pilarna för angränsande kartor.


METAR-TAF: